createdAt,value
2018-07-15T00:01:08.885Z,16.20
2018-07-15T00:30:24.319Z,15.70
2018-07-15T11:33:01.512Z,21.60
2018-07-15T11:35:30.538Z,21.80
2018-07-15T11:37:58.357Z,22.00
2018-07-15T11:40:25.897Z,22.00
2018-07-15T11:42:53.394Z,21.90
2018-07-15T11:45:21.306Z,21.70
2018-07-15T11:47:48.851Z,21.70
2018-07-15T11:50:17.281Z,21.80
2018-07-15T11:52:44.866Z,21.80
2018-07-15T11:55:12.441Z,22.00
2018-07-15T11:57:40.071Z,22.00
2018-07-15T12:00:31.550Z,22.20
2018-07-15T12:02:59.321Z,22.30
2018-07-15T12:05:26.834Z,22.30
2018-07-15T12:07:54.387Z,22.50
2018-07-15T12:10:21.908Z,22.40
2018-07-15T12:12:49.395Z,22.30
2018-07-15T12:15:17.086Z,22.50
2018-07-15T12:17:44.607Z,22.60
2018-07-15T12:20:12.119Z,22.60
2018-07-15T12:22:39.649Z,22.90
2018-07-15T12:25:07.227Z,23.00
2018-07-15T12:27:34.764Z,23.10
2018-07-15T12:30:02.274Z,23.30
2018-07-15T12:32:29.750Z,23.40
2018-07-15T12:34:57.222Z,23.40
2018-07-15T12:37:24.864Z,23.40
2018-07-15T12:39:52.315Z,23.30
2018-07-15T12:42:19.923Z,23.30
2018-07-15T12:44:47.687Z,23.40
2018-07-15T12:47:15.379Z,23.30
2018-07-15T12:49:42.874Z,23.40
2018-07-15T12:52:10.412Z,23.00
2018-07-15T12:54:37.922Z,22.90
2018-07-15T12:57:05.480Z,23.00
2018-07-15T12:59:32.997Z,23.00
2018-07-15T13:02:00.485Z,23.00
2018-07-15T13:04:28.000Z,23.10
2018-07-15T13:06:55.530Z,23.20
2018-07-15T13:09:23.012Z,23.30
2018-07-15T13:11:50.629Z,23.40
2018-07-15T13:14:18.124Z,23.40
2018-07-15T13:16:45.601Z,23.50
2018-07-15T13:19:13.071Z,23.60
2018-07-15T13:21:40.561Z,23.70
2018-07-15T13:24:08.119Z,23.70
2018-07-15T13:26:35.641Z,23.80
2018-07-15T13:29:03.282Z,23.80
2018-07-15T13:31:30.892Z,23.90
2018-07-15T13:33:58.393Z,23.70
2018-07-15T13:36:25.956Z,23.80
2018-07-15T13:38:53.493Z,24.00
2018-07-15T13:41:21.011Z,24.10
2018-07-15T13:43:48.533Z,24.10
2018-07-15T13:46:16.067Z,24.20
2018-07-15T13:48:43.583Z,24.10
2018-07-15T13:51:11.183Z,24.30
2018-07-15T13:53:38.539Z,24.40
2018-07-15T13:56:06.175Z,24.60
2018-07-15T13:58:33.833Z,24.90
2018-07-15T14:01:01.341Z,24.90
2018-07-15T14:03:28.895Z,24.90
2018-07-15T14:05:56.366Z,25.00
2018-07-15T14:08:23.832Z,25.10
2018-07-15T14:10:51.302Z,25.00
2018-07-15T14:13:18.878Z,24.80
2018-07-15T14:18:13.812Z,25.20
2018-07-15T14:20:41.276Z,25.30
2018-07-15T14:23:08.761Z,25.10
2018-07-15T14:25:36.215Z,25.30
2018-07-15T14:28:03.885Z,25.70
2018-07-15T14:30:31.485Z,26.10
2018-07-15T14:32:59.003Z,26.00
2018-07-15T14:35:26.464Z,26.20
2018-07-15T14:37:54.200Z,26.20
2018-07-15T14:42:49.115Z,26.50
2018-07-15T14:45:16.733Z,26.40
2018-07-15T14:47:44.220Z,26.00
2018-07-15T14:50:12.035Z,26.30
2018-07-15T14:52:39.533Z,26.60
2018-07-15T14:55:07.170Z,27.20
2018-07-15T15:00:02.396Z,27.00
2018-07-15T15:02:30.053Z,27.00
2018-07-15T15:07:25.121Z,26.70
2018-07-15T15:09:52.626Z,27.30
2018-07-15T15:14:47.641Z,28.70
2018-07-15T15:17:15.093Z,29.70
2018-07-15T15:19:42.619Z,30.20
2018-07-15T15:22:10.298Z,30.30
2018-07-15T15:24:37.797Z,31.10
2018-07-15T15:27:05.263Z,31.30
2018-07-15T15:32:00.344Z,32.00
2018-07-15T15:39:22.819Z,32.20
2018-07-15T15:41:50.273Z,32.70
2018-07-15T15:44:17.921Z,32.50
2018-07-15T15:46:45.391Z,31.80
2018-07-15T15:51:40.404Z,31.60
2018-07-15T15:56:35.347Z,32.70
2018-07-15T15:59:02.913Z,32.50
2018-07-15T16:01:30.477Z,32.40
2018-07-15T16:03:57.968Z,32.60
2018-07-15T16:06:25.454Z,32.80
2018-07-15T16:08:52.968Z,32.50
2018-07-15T16:11:20.453Z,32.80
2018-07-15T16:13:48.022Z,32.80
2018-07-15T16:16:15.673Z,33.10
2018-07-15T16:21:10.703Z,33.80
2018-07-15T16:23:38.347Z,34.00
2018-07-15T16:31:00.775Z,34.00
2018-07-15T16:33:28.288Z,34.40
2018-07-15T16:35:55.799Z,34.30
2018-07-15T16:38:23.289Z,33.80
2018-07-15T16:43:18.357Z,33.80
2018-07-15T16:45:45.843Z,33.80
2018-07-15T16:48:13.332Z,33.60
2018-07-15T16:53:08.344Z,33.90
2018-07-15T16:58:03.345Z,33.80
2018-07-15T17:00:31.021Z,34.10
2018-07-15T17:02:58.508Z,34.40
2018-07-15T17:05:25.997Z,34.20
2018-07-15T17:07:53.464Z,34.20
2018-07-15T17:10:20.953Z,33.20
2018-07-15T17:12:48.435Z,33.50
2018-07-15T17:15:15.942Z,33.60
2018-07-15T17:17:43.407Z,33.60
2018-07-15T17:20:10.934Z,33.40
2018-07-15T17:22:38.387Z,33.10
2018-07-15T17:27:33.414Z,32.80
2018-07-15T17:30:00.909Z,31.80
2018-07-15T17:32:28.361Z,31.50
2018-07-15T17:34:55.885Z,31.80
2018-07-15T17:37:23.352Z,31.80
2018-07-15T17:39:50.935Z,31.40
2018-07-15T17:42:18.386Z,31.80
2018-07-15T17:44:45.876Z,31.60
2018-07-15T17:47:13.348Z,32.00
2018-07-15T17:49:40.833Z,32.20
2018-07-15T17:52:08.380Z,32.50
2018-07-15T17:54:35.997Z,32.10
2018-07-15T17:57:03.524Z,32.40
2018-07-15T17:59:31.029Z,31.70
2018-07-15T18:01:58.535Z,32.00
2018-07-15T18:06:53.537Z,31.40
2018-07-15T18:09:21.024Z,31.70
2018-07-15T18:14:16.008Z,31.60
2018-07-15T18:19:10.989Z,31.00
2018-07-15T18:21:38.513Z,30.90
2018-07-15T18:24:06.138Z,30.50
2018-07-15T18:26:33.597Z,30.00
2018-07-15T18:29:01.058Z,29.90
2018-07-15T18:31:28.541Z,29.90
2018-07-15T18:33:56.086Z,29.20
2018-07-15T18:36:23.581Z,28.80
2018-07-15T18:38:51.112Z,29.00
2018-07-15T18:41:18.617Z,29.10
2018-07-15T18:43:46.097Z,29.10
2018-07-15T18:46:13.592Z,28.70
2018-07-15T18:48:41.057Z,28.00
2018-07-15T18:51:08.552Z,27.50
2018-07-15T18:53:36.076Z,28.10
2018-07-15T18:56:03.944Z,27.50
2018-07-15T18:58:31.418Z,27.40
2018-07-15T19:00:58.919Z,27.90
2018-07-15T19:03:26.392Z,27.60
2018-07-15T19:08:21.360Z,26.80
2018-07-15T19:10:48.846Z,26.40
2018-07-15T19:13:16.423Z,26.00
2018-07-15T19:18:11.410Z,25.00
2018-07-15T19:23:06.397Z,24.80
2018-07-15T19:25:33.936Z,24.40
2018-07-15T19:28:01.614Z,24.20
2018-07-15T19:30:29.080Z,24.00
2018-07-15T19:32:56.565Z,23.90
2018-07-15T19:35:24.067Z,23.70
2018-07-15T19:37:51.576Z,23.80
2018-07-15T19:40:19.145Z,23.80
2018-07-15T19:42:46.621Z,23.60
2018-07-15T19:45:14.085Z,23.40
2018-07-15T19:47:41.611Z,23.30
2018-07-15T19:50:09.185Z,23.00
2018-07-15T19:55:04.389Z,22.80
2018-07-15T19:57:31.878Z,22.80
2018-07-15T19:59:59.355Z,22.70
2018-07-15T20:02:26.868Z,22.60
2018-07-15T20:07:21.818Z,22.60
2018-07-15T20:09:49.318Z,22.50
2018-07-15T20:12:16.848Z,22.30
2018-07-15T20:14:44.332Z,22.40
2018-07-15T20:17:11.855Z,22.40
2018-07-15T20:19:39.325Z,22.30
2018-07-15T20:22:07.066Z,22.10
2018-07-15T20:24:34.607Z,22.10
2018-07-15T20:27:02.137Z,22.10
2018-07-15T20:29:29.621Z,22.10
2018-07-15T20:31:57.188Z,21.70
2018-07-15T20:34:24.761Z,21.70
2018-07-15T20:41:47.273Z,22.10
2018-07-15T20:44:14.742Z,22.10
2018-07-15T20:46:42.351Z,22.10
2018-07-15T20:51:37.409Z,21.90
2018-07-15T20:54:04.954Z,21.90
2018-07-15T20:56:32.492Z,21.90
2018-07-15T20:58:59.949Z,21.70
2018-07-15T21:01:27.518Z,21.60
2018-07-15T21:03:59.008Z,21.50
2018-07-15T21:06:26.677Z,21.20
2018-07-15T21:11:21.667Z,21.40
2018-07-15T21:13:49.251Z,21.30
2018-07-15T21:16:16.809Z,21.50
2018-07-15T21:18:44.465Z,21.20
2018-07-15T21:21:11.952Z,20.90
2018-07-15T21:23:39.469Z,20.90
2018-07-15T21:26:07.047Z,20.60
2018-07-15T21:28:34.541Z,20.60
2018-07-15T21:31:02.027Z,20.50
2018-07-15T21:33:29.530Z,20.40
2018-07-15T21:35:56.994Z,20.80
2018-07-15T21:38:24.532Z,20.80
2018-07-15T21:40:52.043Z,20.50
2018-07-15T21:43:19.522Z,20.30
2018-07-15T21:45:46.994Z,20.20
2018-07-15T21:50:42.427Z,20.20
2018-07-15T21:55:37.437Z,20.10
2018-07-15T21:58:05.080Z,19.60
2018-07-15T22:03:00.101Z,18.90
2018-07-15T22:05:27.508Z,18.80
2018-07-15T22:08:06.733Z,19.30
2018-07-15T22:10:38.796Z,20.10
2018-07-15T22:13:06.448Z,19.40
2018-07-15T22:15:33.981Z,19.20
2018-07-15T22:20:28.945Z,18.60
2018-07-15T22:22:56.444Z,18.40
2018-07-15T22:25:23.931Z,18.00
2018-07-15T22:27:51.577Z,18.00
2018-07-15T22:32:46.562Z,18.20
2018-07-15T22:35:14.139Z,19.10
2018-07-15T22:37:41.729Z,19.10
2018-07-15T22:40:09.334Z,19.00
2018-07-15T22:42:36.884Z,19.50
2018-07-15T22:45:04.486Z,19.40
2018-07-15T22:49:59.466Z,18.30
2018-07-15T22:52:26.945Z,17.90
2018-07-15T22:54:54.400Z,17.60
2018-07-15T22:57:21.980Z,17.80
2018-07-15T22:59:49.471Z,18.20
2018-07-15T23:02:17.101Z,18.40
2018-07-15T23:05:55.948Z,18.80
2018-07-15T23:08:24.416Z,18.80
2018-07-15T23:10:52.044Z,18.50
2018-07-15T23:13:19.891Z,18.80
2018-07-15T23:15:47.800Z,19.10
2018-07-15T23:20:43.617Z,19.60
2018-07-15T23:25:39.364Z,18.10
2018-07-15T23:28:08.058Z,18.40
2018-07-15T23:30:36.305Z,18.50
2018-07-15T23:35:32.356Z,18.40
2018-07-15T23:37:59.852Z,18.00
2018-07-15T23:40:27.419Z,18.00
2018-07-15T23:42:55.737Z,18.20
2018-07-15T23:45:23.958Z,18.20
2018-07-15T23:47:51.791Z,18.40
2018-07-15T23:55:14.567Z,18.20
